Time;durP1;ratioP1;P1;durP2;ratioP2;P2;SDS_P1;SDS_P2;PMS_P1;PMS_P2;Temp;Humidity;BMP_temperature;BMP_pressure;BME280_temperature;BME280_humidity;BME280_pressure;Samples;Min_cycle;Max_cycle;Signal;HPM_P1;HPM_P2
2024/03/19 00:00:58;;;;;;;;;;;;;;;12.66;75.22;100037.53;4129387;28;19919;-67
2024/03/19 00:02:59;;;;;;;;;;;;;;;12.70;75.10;100045.09;4131170;28;19918;-67
2024/03/19 00:04:59;;;;;;;;;;;;;;;12.71;74.50;100048.59;4131718;28;20441;-68
2024/03/19 00:06:59;;;;;;;;;;;;;;;12.59;75.23;100053.41;4145799;28;19913;-67
2024/03/19 00:09:00;;;;;;;;;;;;;;;12.62;75.12;100045.88;4131228;28;19961;-68
2024/03/19 00:11:01;;;;;;;;;;;;;;;12.72;75.27;100048.44;4131167;28;19936;-67
2024/03/19 00:13:01;;;;;;;;;;;;;;;12.69;74.71;100053.28;4130997;28;19923;-69
2024/03/19 00:15:02;;;;;;;;;;;;;;;12.73;74.87;100050.13;4131048;28;20005;-69
2024/03/19 00:17:03;;;;;;;;;;;;;;;12.78;74.63;100045.13;4130583;28;19952;-69
2024/03/19 00:19:03;;;;;;;;;;;;;;;12.80;74.46;100055.69;4130256;28;19914;-69
2024/03/19 00:21:04;;;;;;;;;;;;;;;12.88;74.37;100041.50;4131301;28;19910;-68
2024/03/19 00:23:04;;;;;;;;;;;;;;;12.81;74.20;100052.03;4131260;28;19968;-68
2024/03/19 00:25:08;;;;;;;;;;;;;;;12.83;74.41;100050.03;4131357;28;19917;-68
2024/03/19 00:27:08;;;;;;;;;;;;;;;12.77;74.43;100056.00;4131011;28;19979;-68
2024/03/19 00:29:08;;;;;;;;;;;;;;;12.84;74.39;100051.72;4131266;28;19910;-67
2024/03/19 00:31:10;;;;;;;;;;;;;;;12.73;74.62;100054.66;4130819;28;19910;-68
2024/03/19 00:33:11;;;;;;;;;;;;;;;12.69;74.81;100055.97;4131452;28;19914;-68
2024/03/19 00:35:11;;;;;;;;;;;;;;;12.69;74.69;100054.13;4131296;28;19909;-68
2024/03/19 00:37:11;;;;;;;;;;;;;;;12.57;75.13;100063.44;4130295;28;19913;-69
2024/03/19 00:39:12;;;;;;;;;;;;;;;12.60;75.09;100053.22;4131018;28;19918;-69
2024/03/19 00:41:12;;;;;;;;;;;;;;;12.60;75.18;100055.09;4129983;28;19946;-66
2024/03/19 00:43:13;;;;;;;;;;;;;;;12.67;74.96;100053.44;4130794;28;20287;-68
2024/03/19 00:45:13;;;;;;;;;;;;;;;12.70;74.86;100055.81;4131074;28;20382;-67
2024/03/19 00:47:14;;;;;;;;;;;;;;;12.68;74.96;100054.28;4130711;28;19916;-67
2024/03/19 00:49:14;;;;;;;;;;;;;;;12.76;74.68;100059.69;4130655;28;20350;-68
2024/03/19 00:51:15;;;;;;;;;;;;;;;12.79;74.57;100048.66;4130670;28;20012;-69
2024/03/19 00:53:15;;;;;;;;;;;;;;;12.76;74.50;100048.94;4130810;28;19909;-68
2024/03/19 00:55:15;;;;;;;;;;;;;;;12.73;74.59;100050.13;4130734;28;20411;-68
2024/03/19 00:57:16;;;;;;;;;;;;;;;12.84;74.63;100046.34;4130298;28;19924;-69
2024/03/19 00:59:16;;;;;;;;;;;;;;;12.81;74.51;100046.66;4145826;28;19963;-68
2024/03/19 01:01:16;;;;;;;;;;;;;;;12.83;74.35;100044.66;4130664;28;19960;-68
2024/03/19 01:03:17;;;;;;;;;;;;;;;12.87;74.43;100046.00;4129961;28;19909;-69
2024/03/19 01:05:17;;;;;;;;;;;;;;;12.90;74.21;100037.66;4130758;28;19910;-69
2024/03/19 01:07:18;;;;;;;;;;;;;;;12.90;74.04;100034.97;4130386;28;19910;-68
2024/03/19 01:09:19;;;;;;;;;;;;;;;12.88;73.88;100042.31;4131083;28;19920;-69
2024/03/19 01:11:19;;;;;;;;;;;;;;;12.87;74.17;100029.91;4130295;28;19909;-67
2024/03/19 01:13:20;;;;;;;;;;;;;;;12.94;74.09;100032.78;4130880;28;19921;-68
2024/03/19 01:15:20;;;;;;;;;;;;;;;12.93;74.27;100042.69;4130489;28;19913;-69
2024/03/19 01:17:21;;;;;;;;;;;;;;;12.95;73.77;100034.47;4145605;28;19921;-65
2024/03/19 01:19:21;;;;;;;;;;;;;;;12.79;74.38;100028.03;4129913;28;19991;-66
2024/03/19 01:21:22;;;;;;;;;;;;;;;12.89;74.59;100030.59;4129866;28;20409;-65
2024/03/19 01:23:22;;;;;;;;;;;;;;;12.95;74.02;100026.44;4128963;28;20005;-66
2024/03/19 01:25:22;;;;;;;;;;;;;;;13.03;73.82;100031.00;4129635;28;19913;-66
2024/03/19 01:27:23;;;;;;;;;;;;;;;13.03;73.57;100022.94;4129933;28;20347;-67
2024/03/19 01:29:23;;;;;;;;;;;;;;;13.04;73.42;100019.25;4130177;28;19910;-68
2024/03/19 01:31:24;;;;;;;;;;;;;;;13.05;73.38;100023.59;4129826;28;19915;-66
2024/03/19 01:33:24;;;;;;;;;;;;;;;12.99;73.68;100017.03;4129986;28;19937;-66
2024/03/19 01:35:24;;;;;;;;;;;;;;;12.98;73.82;100014.53;4129789;28;19946;-66
2024/03/19 01:37:25;;;;;;;;;;;;;;;12.99;73.99;100010.84;4129912;28;19914;-67
2024/03/19 01:39:25;;;;;;;;;;;;;;;13.05;73.70;100010.19;4129910;28;19917;-66
2024/03/19 01:41:26;;;;;;;;;;;;;;;13.03;73.49;100004.16;4129967;28;19910;-67
2024/03/19 01:43:28;;;;;;;;;;;;;;;12.80;74.26;100005.56;4130194;28;19922;-68
2024/03/19 01:45:29;;;;;;;;;;;;;;;12.77;74.40;99997.00;4129846;28;19964;-69
2024/03/19 01:47:29;;;;;;;;;;;;;;;12.78;74.04;99998.69;4129901;28;19920;-68
2024/03/19 01:49:30;;;;;;;;;;;;;;;12.74;74.33;100003.53;4130124;28;19945;-68
2024/03/19 01:51:32;;;;;;;;;;;;;;;12.76;74.42;100001.53;4129921;28;19910;-67
2024/03/19 01:53:32;;;;;;;;;;;;;;;12.78;74.01;99999.53;4130207;28;19953;-67
2024/03/19 01:55:32;;;;;;;;;;;;;;;12.60;74.68;100007.66;4129423;28;19982;-67
2024/03/19 01:57:33;;;;;;;;;;;;;;;12.55;75.27;100001.06;4130012;28;19921;-68
2024/03/19 01:59:34;;;;;;;;;;;;;;;12.73;74.84;100001.00;4130939;28;19953;-65
2024/03/19 02:01:35;;;;;;;;;;;;;;;12.69;74.53;99999.63;4130041;28;20318;-66
2024/03/19 02:03:35;;;;;;;;;;;;;;;12.72;74.08;100004.69;4129474;28;19909;-67
2024/03/19 02:05:38;;;;;;;;;;;;;;;12.72;74.18;100004.69;4146158;28;19917;-70
2024/03/19 02:07:38;;;;;;;;;;;;;;;12.66;74.34;99999.97;4149329;28;19910;-67
2024/03/19 02:12:07;;;;;;;;;;;;;;;12.67;74.25;100007.00;4133578;28;20466;-68
2024/03/19 02:14:08;;;;;;;;;;;;;;;12.75;74.16;100005.22;4130246;28;19917;-68
2024/03/19 02:16:08;;;;;;;;;;;;;;;12.77;73.95;100002.34;4129649;28;20279;-69
2024/03/19 02:18:09;;;;;;;;;;;;;;;12.76;74.03;99995.31;4129924;28;19913;-66
2024/03/19 02:20:12;;;;;;;;;;;;;;;12.71;73.99;100003.00;4129964;28;19933;-66
2024/03/19 02:22:13;;;;;;;;;;;;;;;12.63;74.21;100001.97;4129649;28;20358;-68
2024/03/19 02:24:13;;;;;;;;;;;;;;;12.75;74.00;99993.66;4129358;28;19988;-68
2024/03/19 02:26:14;;;;;;;;;;;;;;;12.82;73.76;99989.31;4129763;28;20358;-68
2024/03/19 02:28:14;;;;;;;;;;;;;;;12.67;74.42;99990.91;4129963;28;19910;-65
2024/03/19 02:30:14;;;;;;;;;;;;;;;12.57;74.32;99991.03;4129599;28;20497;-66
2024/03/19 02:32:15;;;;;;;;;;;;;;;12.67;74.25;99985.53;4128324;28;20406;-69
2024/03/19 02:34:15;;;;;;;;;;;;;;;12.69;74.34;99978.19;4129743;28;19910;-67
2024/03/19 02:36:16;;;;;;;;;;;;;;;12.69;74.63;99976.34;4128786;28;19910;-68
2024/03/19 02:38:16;;;;;;;;;;;;;;;12.76;74.17;99977.38;4128917;28;19918;-68
2024/03/19 02:40:16;;;;;;;;;;;;;;;12.74;73.99;99981.25;4128879;28;19913;-68
2024/03/19 02:42:17;;;;;;;;;;;;;;;12.66;74.09;99978.53;4133451;28;19957;-69
2024/03/19 02:44:18;;;;;;;;;;;;;;;12.59;74.25;99986.34;4148013;28;19916;-70
2024/03/19 02:46:23;;;;;;;;;;;;;;;12.62;74.55;99978.84;4146009;28;19909;-67
2024/03/19 02:48:23;;;;;;;;;;;;;;;12.40;74.94;99984.72;4137740;28;19910;-68
2024/03/19 02:50:24;;;;;;;;;;;;;;;12.46;74.80;99984.94;4136289;28;19910;-68
2024/03/19 02:52:24;;;;;;;;;;;;;;;12.54;74.64;99986.84;4137449;28;19909;-69
2024/03/19 02:54:25;;;;;;;;;;;;;;;12.60;74.36;99986.19;4154370;28;19916;-68
2024/03/19 02:56:26;;;;;;;;;;;;;;;12.55;74.51;99993.88;4116481;28;20009;-68
2024/03/19 02:58:26;;;;;;;;;;;;;;;12.58;74.07;99993.53;4130488;28;19932;-69
2024/03/19 03:00:27;;;;;;;;;;;;;;;12.62;74.49;99992.25;4132560;28;20355;-68
2024/03/19 03:02:27;;;;;;;;;;;;;;;12.59;74.01;99994.41;4132069;28;19997;-66
2024/03/19 03:04:27;;;;;;;;;;;;;;;12.56;74.44;100002.75;4131809;28;19910;-67
2024/03/19 03:06:28;;;;;;;;;;;;;;;12.57;74.50;100002.59;4131965;28;20000;-66
2024/03/19 03:08:28;;;;;;;;;;;;;;;12.58;74.41;100000.75;4132452;28;20008;-69
2024/03/19 03:10:28;;;;;;;;;;;;;;;12.53;74.81;100009.28;4132209;28;20382;-69
2024/03/19 03:12:29;;;;;;;;;;;;;;;12.52;74.45;100009.41;4131946;28;19941;-68
2024/03/19 03:14:29;;;;;;;;;;;;;;;12.55;74.52;100018.03;4147192;28;19992;-67
2024/03/19 03:16:30;;;;;;;;;;;;;;;12.57;73.80;100009.81;4131986;28;19918;-67
2024/03/19 03:18:30;;;;;;;;;;;;;;;12.59;74.30;100010.50;4131998;28;20000;-68
2024/03/19 03:20:31;;;;;;;;;;;;;;;12.56;73.69;100010.81;4131975;28;20476;-66
2024/03/19 03:22:32;;;;;;;;;;;;;;;12.42;74.89;100014.91;4132090;28;19980;-67
2024/03/19 03:24:34;;;;;;;;;;;;;;;12.54;74.34;100010.97;4132207;28;19916;-67
2024/03/19 03:26:34;;;;;;;;;;;;;;;12.23;75.17;100011.44;4131431;28;19909;-68
2024/03/19 03:28:35;;;;;;;;;;;;;;;12.24;75.45;100014.94;4131976;28;19999;-67
2024/03/19 03:30:37;;;;;;;;;;;;;;;12.23;75.17;100007.91;4147240;28;19916;-68
2024/03/19 03:32:38;;;;;;;;;;;;;;;12.24;75.06;100013.13;4132063;28;20565;-67
2024/03/19 03:34:38;;;;;;;;;;;;;;;12.22;75.53;100020.47;4134166;28;19944;-67
2024/03/19 03:36:39;;;;;;;;;;;;;;;12.13;75.73;100016.03;4115342;28;19926;-68
2024/03/19 03:38:39;;;;;;;;;;;;;;;12.12;75.81;100015.22;4115216;28;19985;-67
2024/03/19 03:40:40;;;;;;;;;;;;;;;12.03;76.41;100010.78;4115580;28;20408;-67
2024/03/19 03:42:41;;;;;;;;;;;;;;;12.10;76.05;100010.97;4121365;28;19964;-66
2024/03/19 03:44:41;;;;;;;;;;;;;;;11.97;76.24;100019.38;4130726;28;19914;-67
2024/03/19 03:46:41;;;;;;;;;;;;;;;11.99;76.68;100020.97;4131466;28;19945;-66
2024/03/19 03:48:42;;;;;;;;;;;;;;;12.09;76.15;100012.84;4132324;28;19949;-68
2024/03/19 03:50:43;;;;;;;;;;;;;;;12.06;75.89;100017.66;4130781;28;19953;-68
2024/03/19 03:52:43;;;;;;;;;;;;;;;12.17;75.59;100023.63;4131655;28;20413;-66
2024/03/19 03:54:43;;;;;;;;;;;;;;;12.21;75.21;100018.78;4131763;28;19909;-69
2024/03/19 03:56:44;;;;;;;;;;;;;;;12.19;75.52;100023.44;4130994;28;19921;-68
2024/03/19 03:58:44;;;;;;;;;;;;;;;12.29;75.43;100021.50;4131725;28;19943;-66
2024/03/19 04:00:45;;;;;;;;;;;;;;;12.31;75.07;100024.06;4131623;28;19910;-68
2024/03/19 04:02:46;;;;;;;;;;;;;;;12.35;74.64;100027.25;4131848;28;20368;-67
2024/03/19 04:04:47;;;;;;;;;;;;;;;12.16;75.44;100026.47;4130427;28;19910;-68
2024/03/19 04:06:50;;;;;;;;;;;;;;;12.14;75.62;100033.81;4131045;28;20402;-67
2024/03/19 04:08:50;;;;;;;;;;;;;;;12.29;75.30;100031.41;4130808;28;19910;-70
2024/03/19 04:10:51;;;;;;;;;;;;;;;12.33;75.64;100036.31;4131476;28;20486;-68
2024/03/19 04:12:51;;;;;;;;;;;;;;;12.33;74.74;100038.13;4131506;28;19917;-68
2024/03/19 04:14:51;;;;;;;;;;;;;;;12.38;75.09;100037.66;4131259;28;19910;-68
2024/03/19 04:16:53;;;;;;;;;;;;;;;12.41;74.97;100040.03;4129704;28;19917;-69
2024/03/19 04:18:53;;;;;;;;;;;;;;;12.35;75.11;100036.13;4131309;28;19960;-68
2024/03/19 04:20:53;;;;;;;;;;;;;;;12.28;74.81;100030.53;4131282;28;19977;-68
2024/03/19 04:22:54;;;;;;;;;;;;;;;12.15;75.77;100040.84;4130692;28;20271;-67
2024/03/19 04:24:54;;;;;;;;;;;;;;;12.21;75.33;100034.03;4131215;28;20271;-67
2024/03/19 04:26:54;;;;;;;;;;;;;;;12.17;75.22;100046.91;4130877;28;20449;-68
2024/03/19 04:28:55;;;;;;;;;;;;;;;12.15;75.13;100052.41;4132873;28;19910;-68
2024/03/19 04:30:55;;;;;;;;;;;;;;;12.20;74.92;100048.41;4132972;28;20374;-68
2024/03/19 04:32:55;;;;;;;;;;;;;;;12.23;74.74;100038.22;4134019;28;19910;-67
2024/03/19 04:34:56;;;;;;;;;;;;;;;12.13;75.22;100050.88;4134020;28;19917;-69
2024/03/19 04:36:57;;;;;;;;;;;;;;;12.15;75.13;100051.56;4135045;28;19956;-68
2024/03/19 04:38:58;;;;;;;;;;;;;;;11.89;75.82;100051.47;4134383;28;20009;-68
2024/03/19 04:41:00;;;;;;;;;;;;;;;11.78;76.09;100057.91;4138455;28;19973;-68
2024/03/19 04:43:00;;;;;;;;;;;;;;;11.50;77.25;100060.63;4141497;28;20624;-67
2024/03/19 04:45:01;;;;;;;;;;;;;;;11.36;77.87;100062.81;4140277;28;19914;-69
2024/03/19 04:47:02;;;;;;;;;;;;;;;11.22;78.52;100066.00;4144565;28;19928;-68
2024/03/19 04:49:03;;;;;;;;;;;;;;;11.17;79.04;100058.41;4146358;28;19914;-67
2024/03/19 04:51:11;;;;;;;;;;;;;;;11.17;79.30;100062.91;4148607;28;19909;-70
2024/03/19 04:53:12;;;;;;;;;;;;;;;11.08;79.47;100060.13;4148773;28;19910;-72
2024/03/19 04:55:14;;;;;;;;;;;;;;;11.18;79.53;100056.56;4139646;28;19920;-68
2024/03/19 04:57:14;;;;;;;;;;;;;;;11.41;79.16;100053.50;4142845;28;19913;-66
2024/03/19 04:59:15;;;;;;;;;;;;;;;11.47;78.61;100058.25;4137744;28;19917;-68
2024/03/19 05:01:16;;;;;;;;;;;;;;;11.55;77.88;100050.28;4131937;28;19949;-67
2024/03/19 05:03:16;;;;;;;;;;;;;;;11.46;78.00;100045.84;4131249;28;19910;-67
2024/03/19 05:05:17;;;;;;;;;;;;;;;11.32;78.98;100050.75;4131332;28;19959;-69
2024/03/19 05:07:17;;;;;;;;;;;;;;;11.50;78.58;100052.59;4130736;28;19909;-68
2024/03/19 05:09:18;;;;;;;;;;;;;;;11.49;78.30;100051.75;4128811;28;20113;-68
2024/03/19 05:11:19;;;;;;;;;;;;;;;11.39;78.75;100054.50;4130716;28;19936;-67
2024/03/19 05:13:19;;;;;;;;;;;;;;;11.50;78.35;100047.25;4130725;28;19913;-67
2024/03/19 05:15:20;;;;;;;;;;;;;;;11.45;78.25;100054.88;4129451;28;20127;-69
2024/03/19 05:17:20;;;;;;;;;;;;;;;11.48;78.05;100054.56;4130040;28;19918;-67
2024/03/19 05:19:21;;;;;;;;;;;;;;;11.40;78.20;100063.34;4130550;28;20004;-67
2024/03/19 05:21:21;;;;;;;;;;;;;;;11.42;77.93;100055.19;4130235;28;20438;-69
2024/03/19 05:23:22;;;;;;;;;;;;;;;11.44;78.00;100058.53;4130105;28;19960;-66
2024/03/19 05:25:22;;;;;;;;;;;;;;;11.47;77.95;100056.44;4130154;28;20429;-65
2024/03/19 05:27:22;;;;;;;;;;;;;;;11.58;77.43;100062.53;4129983;28;20393;-66
2024/03/19 05:29:23;;;;;;;;;;;;;;;11.58;77.06;100059.84;4132124;28;19972;-68
2024/03/19 05:31:24;;;;;;;;;;;;;;;11.46;77.82;100057.41;4131726;28;19910;-67
2024/03/19 05:33:25;;;;;;;;;;;;;;;11.53;78.42;100062.97;4131656;28;19910;-66
2024/03/19 05:35:25;;;;;;;;;;;;;;;11.63;78.39;100057.59;4129925;28;19916;-68
2024/03/19 05:37:27;;;;;;;;;;;;;;;11.77;77.43;100053.53;4131760;28;20382;-75
2024/03/19 05:39:27;;;;;;;;;;;;;;;11.70;76.86;100064.88;4131550;28;19926;-68
2024/03/19 05:41:27;;;;;;;;;;;;;;;11.57;77.76;100069.75;4129717;28;19914;-69
2024/03/19 05:43:28;;;;;;;;;;;;;;;11.58;77.85;100065.22;4146522;28;19909;-67
2024/03/19 05:45:30;;;;;;;;;;;;;;;11.53;78.16;100079.06;4129151;28;19925;-69
2024/03/19 05:47:34;;;;;;;;;;;;;;;11.57;77.71;100068.91;4130179;28;19909;-66
2024/03/19 05:49:35;;;;;;;;;;;;;;;11.63;77.92;100068.28;4128841;28;19953;-68
2024/03/19 05:51:36;;;;;;;;;;;;;;;11.70;77.36;100075.59;4128775;28;20000;-67
2024/03/19 05:53:37;;;;;;;;;;;;;;;11.70;77.10;100070.22;4123129;28;19984;-68
2024/03/19 05:55:37;;;;;;;;;;;;;;;11.60;78.03;100080.16;4143616;28;19909;-69
2024/03/19 05:57:38;;;;;;;;;;;;;;;11.62;78.00;100075.47;4129719;28;19957;-67
2024/03/19 05:59:39;;;;;;;;;;;;;;;11.78;77.58;100082.00;4128828;28;19914;-67
2024/03/19 06:01:40;;;;;;;;;;;;;;;11.71;76.73;100082.59;4129240;28;19913;-68
2024/03/19 06:03:41;;;;;;;;;;;;;;;11.76;76.98;100073.28;4129064;28;19975;-69
2024/03/19 06:05:41;;;;;;;;;;;;;;;11.72;77.25;100078.09;4129212;28;19974;-67
2024/03/19 06:07:41;;;;;;;;;;;;;;;11.70;77.47;100070.22;4128548;28;19991;-68
2024/03/19 06:09:44;;;;;;;;;;;;;;;11.70;77.55;100078.25;4128066;28;19987;-69
2024/03/19 06:11:47;;;;;;;;;;;;;;;11.78;77.15;100076.66;4129072;28;20333;-67
2024/03/19 06:13:48;;;;;;;;;;;;;;;11.90;77.24;100074.59;4127368;28;20428;-68
2024/03/19 06:15:48;;;;;;;;;;;;;;;11.81;75.96;100081.69;4129552;28;19917;-68
2024/03/19 06:17:48;;;;;;;;;;;;;;;11.87;76.74;100083.78;4131210;28;20370;-68
2024/03/19 06:19:49;;;;;;;;;;;;;;;11.86;76.37;100084.75;4132863;28;19935;-69
2024/03/19 06:21:49;;;;;;;;;;;;;;;11.91;76.39;100082.47;4132131;28;19913;-68
2024/03/19 06:23:50;;;;;;;;;;;;;;;11.87;76.65;100089.13;4133027;28;20539;-70
2024/03/19 06:25:51;;;;;;;;;;;;;;;11.78;76.80;100093.56;4132705;28;19913;-67
2024/03/19 06:27:51;;;;;;;;;;;;;;;11.87;76.80;100097.16;4132465;28;19914;-69
2024/03/19 06:29:51;;;;;;;;;;;;;;;11.98;76.62;100102.34;4147716;28;19981;-66
2024/03/19 06:31:53;;;;;;;;;;;;;;;11.80;76.54;100096.94;4131409;28;20414;-67
2024/03/19 06:33:54;;;;;;;;;;;;;;;11.86;76.76;100098.16;4132675;28;20450;-68
2024/03/19 06:35:54;;;;;;;;;;;;;;;11.89;76.94;100105.91;4132749;28;19963;-69
2024/03/19 06:37:54;;;;;;;;;;;;;;;11.95;76.81;100099.94;4132082;28;19960;-68
2024/03/19 06:39:55;;;;;;;;;;;;;;;11.77;77.29;100102.56;4132710;28;19928;-67
2024/03/19 06:41:55;;;;;;;;;;;;;;;11.41;78.22;100105.19;4132782;28;19919;-68
2024/03/19 06:43:55;;;;;;;;;;;;;;;11.18;79.69;100104.72;4132444;28;19916;-72
2024/03/19 06:45:56;;;;;;;;;;;;;;;11.20;80.06;100110.78;4132473;28;19913;-68
2024/03/19 06:47:57;;;;;;;;;;;;;;;11.26;79.89;100104.00;4132282;28;19909;-69
2024/03/19 06:49:59;;;;;;;;;;;;;;;11.16;80.13;100104.88;4148113;28;20456;-68
2024/03/19 06:51:59;;;;;;;;;;;;;;;11.07;81.11;100114.63;4131261;28;20404;-67
2024/03/19 06:53:59;;;;;;;;;;;;;;;11.06;81.31;100118.28;4132248;28;19910;-69
2024/03/19 06:56:00;;;;;;;;;;;;;;;10.93;81.89;100115.94;4131961;28;20138;-68
2024/03/19 06:58:00;;;;;;;;;;;;;;;10.79;82.18;100119.09;4132365;28;19968;-67
2024/03/19 07:00:00;;;;;;;;;;;;;;;11.13;82.11;100121.22;4132695;28;20068;-69
2024/03/19 07:02:04;;;;;;;;;;;;;;;11.18;80.71;100118.13;4132415;28;19921;-70
2024/03/19 07:04:05;;;;;;;;;;;;;;;11.05;81.13;100123.78;4147204;28;19916;-66
2024/03/19 07:06:07;;;;;;;;;;;;;;;10.74;81.72;100126.69;4133704;28;19916;-68
2024/03/19 07:08:08;;;;;;;;;;;;;;;10.85;82.23;100126.53;4133361;28;19914;-68
2024/03/19 07:10:10;;;;;;;;;;;;;;;10.80;82.30;100123.44;4133523;28;19916;-66
2024/03/19 07:12:11;;;;;;;;;;;;;;;10.81;82.63;100133.16;4135567;28;19909;-68
2024/03/19 07:14:11;;;;;;;;;;;;;;;10.99;82.37;100130.56;4136469;28;19967;-68
2024/03/19 07:16:11;;;;;;;;;;;;;;;10.99;81.74;100130.56;4139169;28;20025;-68
2024/03/19 07:18:12;;;;;;;;;;;;;;;10.99;81.57;100133.25;4139472;28;19918;-68
2024/03/19 07:20:13;;;;;;;;;;;;;;;11.08;81.49;100132.38;4151466;28;19936;-68
2024/03/19 07:22:13;;;;;;;;;;;;;;;11.34;80.60;100134.38;4138416;28;19910;-67
2024/03/19 07:24:14;;;;;;;;;;;;;;;11.57;79.41;100139.34;4139088;28;19921;-66
2024/03/19 07:26:14;;;;;;;;;;;;;;;11.85;78.40;100132.13;4139074;28;19909;-68
2024/03/19 07:28:16;;;;;;;;;;;;;;;11.80;78.26;100133.59;4137864;28;19916;-68
2024/03/19 07:30:17;;;;;;;;;;;;;;;11.94;77.35;100135.75;4151710;28;19979;-68
2024/03/19 07:32:17;;;;;;;;;;;;;;;11.77;77.61;100136.56;4135995;28;20314;-68
2024/03/19 07:34:18;;;;;;;;;;;;;;;11.85;77.23;100142.00;4133496;28;19920;-67
2024/03/19 07:36:18;;;;;;;;;;;;;;;12.04;76.48;100137.53;4132866;28;19917;-68
2024/03/19 07:38:19;;;;;;;;;;;;;;;12.09;75.88;100140.63;4132119;28;19977;-68
2024/03/19 07:40:20;;;;;;;;;;;;;;;12.15;76.39;100143.50;4132653;28;20302;-67
2024/03/19 07:42:21;;;;;;;;;;;;;;;12.14;76.42;100146.34;4132305;28;20282;-67
2024/03/19 07:44:21;;;;;;;;;;;;;;;12.18;76.24;100153.09;4131914;28;19914;-68
2024/03/19 07:46:22;;;;;;;;;;;;;;;12.28;76.16;100153.00;4131595;28;20498;-69
2024/03/19 07:48:22;;;;;;;;;;;;;;;12.38;75.44;100148.41;4131083;28;19920;-69
2024/03/19 07:50:28;;;;;;;;;;;;;;;12.37;75.75;100148.59;4131832;28;19916;-68
2024/03/19 07:52:29;;;;;;;;;;;;;;;12.40;76.00;100149.13;4132670;28;20290;-68
2024/03/19 07:54:29;;;;;;;;;;;;;;;12.42;74.92;100154.31;4132592;28;19914;-68
2024/03/19 07:56:30;;;;;;;;;;;;;;;12.48;75.20;100151.00;4131936;28;19909;-68
2024/03/19 07:58:30;;;;;;;;;;;;;;;12.45;75.41;100148.66;4131854;28;19916;-68
2024/03/19 08:00:31;;;;;;;;;;;;;;;12.48;75.31;100159.03;4146602;28;19920;-69
2024/03/19 08:02:32;;;;;;;;;;;;;;;12.44;75.18;100158.53;4131893;28;19920;-69
2024/03/19 08:04:32;;;;;;;;;;;;;;;12.30;76.85;100167.13;4131707;28;20401;-68
2024/03/19 08:06:32;;;;;;;;;;;;;;;12.24;76.85;100170.38;4131622;28;19916;-68
2024/03/19 08:08:33;;;;;;;;;;;;;;;12.33;76.77;100167.66;4131249;28;19916;-69
2024/03/19 08:10:33;;;;;;;;;;;;;;;12.30;76.55;100167.94;4146173;28;20266;-66
2024/03/19 08:12:33;;;;;;;;;;;;;;;12.43;76.32;100180.13;4130240;28;20013;-67
2024/03/19 08:14:34;;;;;;;;;;;;;;;12.48;76.07;100172.44;4131266;28;20414;-68
2024/03/19 08:16:34;;;;;;;;;;;;;;;12.48;75.87;100175.13;4131909;28;20420;-69
2024/03/19 08:18:34;;;;;;;;;;;;;;;12.49;76.07;100171.47;4133179;28;19909;-69
2024/03/19 08:20:43;;;;;;;;;;;;;;;12.58;75.07;100170.53;4145694;28;19944;-69
2024/03/19 08:22:44;;;;;;;;;;;;;;;12.67;75.17;100173.28;4130730;28;19914;-68
2024/03/19 08:24:44;;;;;;;;;;;;;;;12.80;74.81;100171.88;4146314;28;20440;-69
2024/03/19 08:26:44;;;;;;;;;;;;;;;12.82;74.83;100171.75;4131211;28;19916;-69
2024/03/19 08:28:45;;;;;;;;;;;;;;;12.94;74.38;100175.00;4131136;28;19941;-68
2024/03/19 08:30:45;;;;;;;;;;;;;;;12.90;73.93;100171.78;4131555;28;19968;-68
2024/03/19 08:32:45;;;;;;;;;;;;;;;12.63;75.50;100181.66;4131078;28;20000;-69
2024/03/19 08:34:45;;;;;;;;;;;;;;;12.55;75.20;100192.31;4131232;28;19910;-69
2024/03/19 08:36:46;;;;;;;;;;;;;;;12.71;75.75;100175.50;4129308;28;19920;-69
2024/03/19 08:38:47;;;;;;;;;;;;;;;12.58;75.19;100180.44;4129991;28;19976;-67
2024/03/19 08:40:47;;;;;;;;;;;;;;;12.56;75.41;100177.91;4128389;28;20012;-69
2024/03/19 08:42:47;;;;;;;;;;;;;;;12.62;74.36;100185.34;4130100;28;19917;-67
2024/03/19 08:44:48;;;;;;;;;;;;;;;12.70;75.02;100184.56;4130864;28;19909;-65
2024/03/19 08:46:48;;;;;;;;;;;;;;;12.73;74.86;100183.41;4130245;28;19909;-67
2024/03/19 08:48:48;;;;;;;;;;;;;;;12.85;74.60;100184.81;4130257;28;20012;-69
2024/03/19 08:50:49;;;;;;;;;;;;;;;12.80;74.67;100189.81;4130478;28;20398;-69
2024/03/19 08:52:49;;;;;;;;;;;;;;;12.91;74.02;100184.22;4123085;28;19972;-67
2024/03/19 08:54:50;;;;;;;;;;;;;;;12.63;74.03;100183.47;4122523;28;20386;-69
2024/03/19 08:56:51;;;;;;;;;;;;;;;12.38;75.21;100185.09;4121874;28;19948;-68
2024/03/19 08:58:52;;;;;;;;;;;;;;;12.53;75.73;100188.06;4128901;28;20374;-69
2024/03/19 09:00:52;;;;;;;;;;;;;;;12.85;74.29;100186.69;4130606;28;19917;-67
2024/03/19 09:02:52;;;;;;;;;;;;;;;13.03;74.29;100189.34;4131325;28;19982;-70
2024/03/19 09:04:53;;;;;;;;;;;;;;;13.06;72.04;100181.81;4131863;28;20532;-69
2024/03/19 09:06:53;;;;;;;;;;;;;;;13.16;73.03;100183.53;4130666;28;19909;-68
2024/03/19 09:08:53;;;;;;;;;;;;;;;13.35;72.25;100180.63;4130402;28;19916;-70
2024/03/19 09:10:54;;;;;;;;;;;;;;;13.51;71.27;100181.75;4130107;28;19944;-67
2024/03/19 09:12:54;;;;;;;;;;;;;;;13.53;72.24;100182.44;4130656;28;19935;-68
2024/03/19 09:14:55;;;;;;;;;;;;;;;13.60;70.98;100179.94;4130753;28;19910;-69
2024/03/19 09:16:55;;;;;;;;;;;;;;;13.46;70.58;100179.53;4130556;28;20400;-67
2024/03/19 09:18:55;;;;;;;;;;;;;;;13.30;71.30;100184.78;4130723;28;20447;-69
2024/03/19 09:20:56;;;;;;;;;;;;;;;13.30;72.21;100174.88;4130054;28;19909;-69
2024/03/19 09:22:56;;;;;;;;;;;;;;;13.61;70.56;100186.97;4131246;28;19909;-68
2024/03/19 09:24:56;;;;;;;;;;;;;;;13.34;70.63;100180.78;4130497;28;19972;-69
2024/03/19 09:26:57;;;;;;;;;;;;;;;13.66;70.91;100187.34;4128809;28;19936;-68
2024/03/19 09:28:58;;;;;;;;;;;;;;;13.76;69.51;100184.50;4129988;28;19909;-68
2024/03/19 09:30:59;;;;;;;;;;;;;;;13.65;69.96;100191.84;4128963;28;19918;-68
2024/03/19 09:32:59;;;;;;;;;;;;;;;13.65;70.70;100193.72;4129918;28;19909;-68
2024/03/19 09:34:59;;;;;;;;;;;;;;;13.56;70.66;100184.78;4129933;28;19910;-66
2024/03/19 09:37:00;;;;;;;;;;;;;;;13.66;69.97;100185.50;4129279;28;19918;-67
2024/03/19 09:39:02;;;;;;;;;;;;;;;13.79;69.54;100181.50;4128557;28;19941;-66
2024/03/19 09:41:03;;;;;;;;;;;;;;;13.94;68.54;100176.34;4129471;28;20322;-68
2024/03/19 09:43:05;;;;;;;;;;;;;;;13.85;68.89;100175.47;4130369;28;19921;-69
2024/03/19 09:45:07;;;;;;;;;;;;;;;13.73;69.42;100178.50;4131102;28;19909;-67
2024/03/19 09:47:09;;;;;;;;;;;;;;;14.00;67.97;100181.06;4129992;28;19909;-68
2024/03/19 09:49:15;;;;;;;;;;;;;;;13.84;68.67;100179.16;4130347;28;19949;-69
2024/03/19 09:51:22;;;;;;;;;;;;;;;13.56;69.31;100184.78;4129696;28;20000;-70
2024/03/19 09:53:27;;;;;;;;;;;;;;;13.65;69.28;100183.81;4129197;28;19960;-69
2024/03/19 09:55:28;;;;;;;;;;;;;;;13.89;69.22;100183.06;4131192;28;19909;-67
2024/03/19 09:57:28;;;;;;;;;;;;;;;14.38;67.37;100178.78;4129519;28;19920;-68
2024/03/19 09:59:29;;;;;;;;;;;;;;;14.25;67.60;100183.84;4128611;28;19976;-69
2024/03/19 10:01:30;;;;;;;;;;;;;;;14.58;66.70;100181.16;4130551;28;19933;-68
2024/03/19 10:03:30;;;;;;;;;;;;;;;14.41;66.29;100178.47;4139405;28;19964;-67
2024/03/19 10:05:30;;;;;;;;;;;;;;;14.30;66.74;100176.94;4139740;28;19913;-69
2024/03/19 10:07:31;;;;;;;;;;;;;;;14.74;66.25;100175.81;4141196;28;19924;-68
2024/03/19 10:09:32;;;;;;;;;;;;;;;15.15;64.26;100174.94;4143450;28;19921;-67
2024/03/19 10:11:36;;;;;;;;;;;;;;;15.39;63.95;100168.66;4144054;28;19910;-69
2024/03/19 10:13:36;;;;;;;;;;;;;;;15.65;63.43;100170.22;4142822;28;19909;-67
2024/03/19 10:15:37;;;;;;;;;;;;;;;15.89;62.35;100173.84;4142399;28;19989;-69
2024/03/19 10:17:37;;;;;;;;;;;;;;;15.67;62.42;100176.28;4134276;28;19914;-68
2024/03/19 10:19:37;;;;;;;;;;;;;;;15.75;62.79;100176.25;4131170;28;19913;-68
2024/03/19 10:21:39;;;;;;;;;;;;;;;15.98;62.35;100177.34;4129513;28;20429;-70
2024/03/19 10:23:40;;;;;;;;;;;;;;;16.31;61.15;100167.19;4129461;28;20012;-68